Terminal Aerodrome Forecast
Issued by NWS Jackson, KY

Home | Current Version | Previous Version | Text Only | Print | Product List | Glossary On
Versions: 1 2 3 4 5 6 7 8 9 10 11 12 13 14 15 16 17 18 19 20 21 22 23 24 25 26
000
FTUS43 KJKL 301442 AAB
TAFJKL
TAF AMD
KJKL 301442Z 3015/0112 00000KT 1/4SM FG OVC001
     FM301530 28002KT P6SM BKN015
     FM301630 31003KT P6SM SCT020 BKN040=

USA.gov is the U.S. government's official web portal to all federal, state and local government web resources and services.